createdAt,value
2019-03-25T00:01:56.855Z,9.89
2019-03-25T00:04:27.074Z,9.96
2019-03-25T00:06:57.225Z,9.99
2019-03-25T00:09:27.307Z,10.00
2019-03-25T00:11:57.451Z,9.88
2019-03-25T00:14:27.635Z,9.79
2019-03-25T00:16:57.809Z,9.76
2019-03-25T00:19:27.870Z,9.59
2019-03-25T00:21:58.148Z,9.67
2019-03-25T00:24:38.286Z,9.58
2019-03-25T00:27:00.459Z,9.54
2019-03-25T00:29:30.611Z,9.52
2019-03-25T00:32:00.888Z,9.49
2019-03-25T00:34:30.935Z,9.55
2019-03-25T00:37:01.235Z,9.58
2019-03-25T00:39:31.389Z,9.51
2019-03-25T00:42:01.662Z,9.48
2019-03-25T00:44:31.815Z,9.43
2019-03-25T00:47:01.907Z,9.40
2019-03-25T00:49:32.189Z,9.41
2019-03-25T00:52:02.549Z,9.41
2019-03-25T00:54:32.776Z,9.35
2019-03-25T00:57:02.896Z,9.28
2019-03-25T00:59:33.067Z,9.22
2019-03-25T01:02:03.186Z,9.20
2019-03-25T01:04:33.388Z,9.16
2019-03-25T01:07:03.627Z,9.14
2019-03-25T01:09:33.813Z,9.10
2019-03-25T01:12:03.881Z,9.08
2019-03-25T01:14:34.038Z,9.10
2019-03-25T01:17:04.327Z,9.03
2019-03-25T01:19:34.474Z,9.06
2019-03-25T01:22:04.779Z,9.02
2019-03-25T01:24:35.141Z,9.00
2019-03-25T01:27:05.314Z,9.02
2019-03-25T01:29:35.564Z,8.95
2019-03-25T01:32:05.743Z,8.94
2019-03-25T01:34:36.024Z,8.89
2019-03-25T01:37:06.204Z,8.88
2019-03-25T01:39:36.578Z,8.87
2019-03-25T01:42:06.775Z,8.82
2019-03-25T01:44:36.926Z,8.77
2019-03-25T01:47:07.078Z,8.71
2019-03-25T01:49:37.245Z,8.65
2019-03-25T01:52:07.434Z,8.61
2019-03-25T01:54:37.699Z,8.58
2019-03-25T01:57:07.914Z,8.52
2019-03-25T01:59:38.218Z,8.48
2019-03-25T02:02:08.304Z,8.48
2019-03-25T02:04:38.378Z,8.47
2019-03-25T02:07:08.472Z,8.45
2019-03-25T02:09:38.617Z,8.45
2019-03-25T02:12:08.918Z,8.45
2019-03-25T02:14:39.092Z,8.44
2019-03-25T02:17:09.191Z,8.42
2019-03-25T02:19:39.350Z,8.39
2019-03-25T02:22:09.505Z,8.35
2019-03-25T02:24:39.714Z,8.33
2019-03-25T02:27:09.964Z,8.34
2019-03-25T02:29:40.052Z,8.30
2019-03-25T02:32:10.284Z,8.25
2019-03-25T02:34:40.484Z,8.25
2019-03-25T02:37:10.857Z,8.23
2019-03-25T02:39:40.965Z,8.23
2019-03-25T02:42:11.227Z,8.22
2019-03-25T02:44:41.364Z,8.21
2019-03-25T02:47:11.644Z,8.20
2019-03-25T02:49:41.831Z,8.18
2019-03-25T02:52:12.209Z,8.04
2019-03-25T02:54:42.275Z,7.80
2019-03-25T02:57:12.531Z,7.86
2019-03-25T02:59:42.693Z,7.91
2019-03-25T03:02:12.958Z,7.93
2019-03-25T03:04:43.136Z,7.86
2019-03-25T03:07:13.545Z,7.75
2019-03-25T03:09:43.592Z,7.67
2019-03-25T03:12:13.780Z,7.12
2019-03-25T03:14:43.943Z,6.98
2019-03-25T03:17:14.117Z,7.00
2019-03-25T03:19:44.172Z,6.78
2019-03-25T03:22:14.568Z,6.83
2019-03-25T03:24:44.844Z,6.73
2019-03-25T03:27:15.105Z,6.82
2019-03-25T03:29:45.453Z,6.91
2019-03-25T03:32:15.740Z,6.99
2019-03-25T03:34:45.968Z,7.09
2019-03-25T03:37:16.062Z,7.21
2019-03-25T03:39:46.253Z,7.29
2019-03-25T03:42:16.390Z,7.31
2019-03-25T03:44:46.559Z,7.31
2019-03-25T03:47:16.749Z,7.38
2019-03-25T03:49:47.118Z,7.38
2019-03-25T03:52:17.214Z,7.38
2019-03-25T03:54:47.243Z,7.03
2019-03-25T03:57:17.385Z,7.30
2019-03-25T03:59:47.611Z,7.28
2019-03-25T04:02:17.634Z,7.28
2019-03-25T04:04:47.746Z,7.61
2019-03-25T04:07:17.896Z,7.94
2019-03-25T04:09:48.068Z,7.94
2019-03-25T04:12:18.235Z,8.03
2019-03-25T04:14:48.421Z,7.27
2019-03-25T04:17:18.455Z,7.27
2019-03-25T04:19:48.539Z,7.13
2019-03-25T04:22:18.705Z,7.13
2019-03-25T04:24:48.767Z,6.72
2019-03-25T04:27:19.023Z,7.01
2019-03-25T04:29:49.122Z,7.30
2019-03-25T04:32:19.175Z,7.50
2019-03-25T04:34:49.374Z,7.63
2019-03-25T04:37:19.537Z,7.79
2019-03-25T04:39:49.736Z,7.63
2019-03-25T04:42:19.762Z,7.57
2019-03-25T04:44:50.046Z,7.84
2019-03-25T04:47:20.118Z,7.93
2019-03-25T04:49:50.287Z,7.97
2019-03-25T04:52:20.361Z,7.50
2019-03-25T04:54:50.549Z,7.72
2019-03-25T04:57:20.598Z,7.82
2019-03-25T04:59:50.731Z,8.00
2019-03-25T05:02:20.898Z,8.12
2019-03-25T05:04:50.963Z,8.20
2019-03-25T05:07:21.318Z,7.96
2019-03-25T05:09:51.406Z,7.96
2019-03-25T05:12:21.541Z,8.13
2019-03-25T05:14:51.619Z,8.36
2019-03-25T05:17:21.676Z,8.43
2019-03-25T05:19:51.789Z,8.26
2019-03-25T05:22:21.976Z,8.23
2019-03-25T05:24:52.033Z,8.34
2019-03-25T05:27:22.222Z,8.30
2019-03-25T05:29:52.341Z,8.33
2019-03-25T05:32:22.429Z,8.28
2019-03-25T05:34:52.584Z,8.32
2019-03-25T05:37:22.744Z,8.31
2019-03-25T05:39:52.948Z,8.49
2019-03-25T05:42:23.207Z,8.51
2019-03-25T05:44:53.402Z,8.72
2019-03-25T05:47:23.546Z,8.65
2019-03-25T05:49:53.733Z,8.40
2019-03-25T05:52:23.890Z,8.60
2019-03-25T05:54:53.984Z,8.63
2019-03-25T05:57:24.136Z,8.77
2019-03-25T05:59:54.246Z,8.86
2019-03-25T06:02:24.387Z,9.09
2019-03-25T06:04:54.447Z,9.18
2019-03-25T06:07:24.607Z,9.32
2019-03-25T06:09:54.703Z,9.46
2019-03-25T06:12:24.875Z,9.41
2019-03-25T06:14:55.047Z,9.62
2019-03-25T06:17:25.225Z,9.82
2019-03-25T06:19:55.389Z,9.86
2019-03-25T06:22:25.618Z,9.42
2019-03-25T06:24:55.719Z,9.71
2019-03-25T06:27:25.891Z,9.88
2019-03-25T06:29:56.067Z,10.13
2019-03-25T06:32:26.201Z,10.35
2019-03-25T06:34:56.320Z,10.35
2019-03-25T06:37:26.509Z,10.48
2019-03-25T06:39:56.692Z,10.44
2019-03-25T06:42:26.775Z,10.37
2019-03-25T06:44:57.017Z,10.26
2019-03-25T06:47:27.212Z,10.22
2019-03-25T06:49:57.456Z,10.14
2019-03-25T06:52:27.659Z,10.17
2019-03-25T06:54:57.823Z,10.16
2019-03-25T06:57:28.005Z,10.20
2019-03-25T06:59:58.170Z,9.94
2019-03-25T07:02:28.332Z,10.10
2019-03-25T07:04:58.597Z,9.78
2019-03-25T07:07:28.878Z,9.95
2019-03-25T07:09:59.041Z,9.77
2019-03-25T07:12:29.100Z,10.06
2019-03-25T07:14:59.297Z,10.17
2019-03-25T07:17:29.539Z,10.51
2019-03-25T07:19:59.860Z,10.67
2019-03-25T07:22:30.088Z,10.85
2019-03-25T07:25:00.353Z,10.73
2019-03-25T07:27:36.689Z,10.67
2019-03-25T07:30:02.371Z,11.00
2019-03-25T07:32:32.318Z,11.16
2019-03-25T07:35:02.628Z,11.40
2019-03-25T07:37:32.781Z,11.38
2019-03-25T07:40:02.943Z,11.42
2019-03-25T07:42:33.126Z,11.24
2019-03-25T07:45:03.370Z,10.64
2019-03-25T07:47:33.773Z,10.27
2019-03-25T07:50:03.916Z,10.27
2019-03-25T07:52:33.990Z,10.32
2019-03-25T07:55:04.095Z,10.03
2019-03-25T07:57:35.097Z,10.12
2019-03-25T08:00:13.530Z,10.57
2019-03-25T08:02:37.800Z,10.46
2019-03-25T08:05:07.977Z,10.33
2019-03-25T08:07:38.219Z,10.28
2019-03-25T08:10:08.391Z,10.67
2019-03-25T08:12:38.423Z,10.56
2019-03-25T08:15:09.471Z,9.91
2019-03-25T08:17:39.625Z,9.28
2019-03-25T08:20:10.089Z,9.19
2019-03-25T08:22:40.254Z,8.83
2019-03-25T08:25:10.474Z,8.91
2019-03-25T08:27:40.748Z,9.20
2019-03-25T08:30:10.975Z,9.64
2019-03-25T08:32:41.116Z,9.70
2019-03-25T08:35:11.263Z,9.71
2019-03-25T08:37:41.892Z,9.82
2019-03-25T08:40:12.017Z,11.88
2019-03-25T08:42:42.239Z,14.92
2019-03-25T08:45:12.791Z,17.33
2019-03-25T08:47:43.068Z,18.53
2019-03-25T08:50:13.170Z,18.97
2019-03-25T08:52:43.311Z,20.19
2019-03-25T08:55:14.117Z,20.48
2019-03-25T08:57:44.450Z,21.41
2019-03-25T09:00:16.187Z,20.98
2019-03-25T09:02:46.471Z,21.26
2019-03-25T09:05:17.082Z,19.57
2019-03-25T09:07:47.311Z,19.55
2019-03-25T09:10:19.888Z,19.56
2019-03-25T09:12:49.995Z,19.70
2019-03-25T09:15:20.156Z,19.30
2019-03-25T09:17:50.324Z,18.57
2019-03-25T09:20:20.617Z,18.50
2019-03-25T09:22:50.893Z,18.40
2019-03-25T09:25:21.048Z,18.01
2019-03-25T09:27:51.296Z,16.75
2019-03-25T09:30:56.581Z,15.40
2019-03-25T09:33:26.882Z,15.25
2019-03-25T09:35:57.150Z,15.20
2019-03-25T09:38:27.442Z,15.81
2019-03-25T09:40:58.020Z,17.06
2019-03-25T09:43:28.174Z,18.06
2019-03-25T09:45:58.339Z,18.99
2019-03-25T09:48:29.327Z,19.39
2019-03-25T09:50:59.937Z,18.15
2019-03-25T09:53:30.086Z,17.68
2019-03-25T09:56:00.165Z,17.19
2019-03-25T09:58:36.310Z,18.06
2019-03-25T10:01:02.789Z,17.85
2019-03-25T10:03:33.301Z,18.09
2019-03-25T10:06:03.430Z,19.70
2019-03-25T10:08:33.909Z,20.25
2019-03-25T10:11:03.952Z,21.55
2019-03-25T10:13:34.304Z,20.35
2019-03-25T10:16:04.513Z,19.37
2019-03-25T10:18:34.589Z,19.51
2019-03-25T10:21:04.710Z,20.37
2019-03-25T10:23:35.049Z,20.15
2019-03-25T10:26:05.649Z,19.47
2019-03-25T10:28:47.546Z,18.99
2019-03-25T10:31:07.696Z,18.44
2019-03-25T10:33:38.154Z,17.46
2019-03-25T10:36:08.577Z,17.52
2019-03-25T10:38:38.873Z,18.04
2019-03-25T10:41:09.080Z,16.97
2019-03-25T10:43:39.519Z,16.83
2019-03-25T10:46:09.724Z,16.99
2019-03-25T10:48:39.934Z,17.07
2019-03-25T10:51:10.174Z,16.42
2019-03-25T10:53:40.691Z,15.41
2019-03-25T10:56:10.831Z,15.66
2019-03-25T10:58:40.996Z,16.20
2019-03-25T11:01:10.951Z,17.88
2019-03-25T11:03:41.116Z,18.85
2019-03-25T11:06:11.199Z,18.36
2019-03-25T11:08:41.413Z,17.97
2019-03-25T11:11:12.963Z,17.14
2019-03-25T11:13:43.146Z,17.03
2019-03-25T11:16:13.543Z,16.52
2019-03-25T11:18:43.761Z,17.36
2019-03-25T11:21:14.009Z,17.77
2019-03-25T11:23:44.157Z,18.53
2019-03-25T11:26:14.334Z,18.70
2019-03-25T11:28:44.966Z,19.73
2019-03-25T11:31:15.429Z,20.16
2019-03-25T11:33:45.687Z,19.03
2019-03-25T11:36:16.175Z,18.58
2019-03-25T11:38:46.321Z,18.12
2019-03-25T11:41:16.505Z,18.10
2019-03-25T11:43:46.687Z,17.25
2019-03-25T11:46:16.948Z,16.18
2019-03-25T11:48:47.091Z,14.59
2019-03-25T11:51:17.192Z,13.01
2019-03-25T11:53:49.261Z,12.69
2019-03-25T11:56:19.585Z,13.02
2019-03-25T11:58:49.701Z,13.97
2019-03-25T12:01:20.022Z,14.83
2019-03-25T12:03:50.287Z,15.44
2019-03-25T12:06:21.451Z,16.52
2019-03-25T12:08:51.653Z,17.10
2019-03-25T12:11:23.674Z,17.61
2019-03-25T12:13:53.763Z,17.90
2019-03-25T12:16:24.005Z,17.73
2019-03-25T12:18:54.165Z,18.06
2019-03-25T12:21:24.488Z,18.62
2019-03-25T12:23:54.556Z,18.39
2019-03-25T12:26:24.811Z,17.36
2019-03-25T12:28:54.895Z,16.24
2019-03-25T12:31:25.131Z,15.35
2019-03-25T12:33:55.234Z,14.65
2019-03-25T12:36:25.453Z,14.60
2019-03-25T12:38:55.477Z,15.57
2019-03-25T12:41:25.765Z,16.00
2019-03-25T12:43:55.890Z,15.44
2019-03-25T12:46:26.084Z,14.97
2019-03-25T12:48:56.525Z,13.94
2019-03-25T12:51:27.059Z,12.95
2019-03-25T12:53:58.818Z,12.65
2019-03-25T12:56:29.139Z,12.99
2019-03-25T12:58:59.408Z,13.99
2019-03-25T13:01:29.946Z,14.81
2019-03-25T13:04:00.014Z,15.39
2019-03-25T13:06:30.094Z,15.89
2019-03-25T13:09:00.371Z,16.54
2019-03-25T13:11:30.539Z,16.57
2019-03-25T13:14:00.647Z,16.56
2019-03-25T13:16:30.834Z,16.21
2019-03-25T13:19:01.069Z,16.41
2019-03-25T13:21:31.446Z,16.73
2019-03-25T13:24:01.495Z,17.42
2019-03-25T13:26:31.784Z,17.88
2019-03-25T13:29:02.669Z,17.76
2019-03-25T13:31:33.016Z,17.80
2019-03-25T13:34:03.109Z,17.03
2019-03-25T13:36:33.394Z,16.76
2019-03-25T13:39:03.560Z,16.43
2019-03-25T13:41:33.830Z,16.03
2019-03-25T13:44:04.043Z,15.88
2019-03-25T13:46:34.203Z,16.09
2019-03-25T13:49:04.371Z,15.59
2019-03-25T13:51:34.468Z,13.60
2019-03-25T13:54:06.927Z,12.63
2019-03-25T13:56:36.657Z,12.13
2019-03-25T13:59:06.846Z,13.18
2019-03-25T14:01:36.908Z,13.98
2019-03-25T14:04:07.164Z,14.76
2019-03-25T14:06:37.336Z,14.98
2019-03-25T14:09:08.302Z,15.56
2019-03-25T14:11:38.408Z,15.69
2019-03-25T14:14:08.566Z,15.44
2019-03-25T14:16:38.707Z,15.49
2019-03-25T14:19:09.116Z,15.60
2019-03-25T14:21:39.284Z,15.71
2019-03-25T14:24:09.546Z,15.80
2019-03-25T14:26:39.633Z,16.08
2019-03-25T14:29:09.869Z,15.80
2019-03-25T14:31:40.076Z,15.20
2019-03-25T14:34:10.318Z,14.40
2019-03-25T14:36:40.395Z,14.06
2019-03-25T14:39:10.630Z,14.24
2019-03-25T14:41:40.740Z,14.20
2019-03-25T14:44:11.061Z,14.19
2019-03-25T14:46:41.090Z,13.90
2019-03-25T14:49:11.297Z,13.98
2019-03-25T14:51:41.347Z,13.74
2019-03-25T14:54:11.609Z,13.28
2019-03-25T14:56:41.859Z,13.10
2019-03-25T14:59:11.953Z,12.95
2019-03-25T15:01:42.269Z,12.63
2019-03-25T15:04:12.384Z,12.37
2019-03-25T15:06:42.546Z,12.19
2019-03-25T15:09:13.165Z,13.31
2019-03-25T15:11:43.446Z,14.07
2019-03-25T15:14:13.697Z,14.82
2019-03-25T15:16:44.196Z,15.10
2019-03-25T15:19:14.434Z,15.33
2019-03-25T15:21:44.765Z,15.31
2019-03-25T15:24:14.854Z,14.49
2019-03-25T15:26:45.820Z,13.66
2019-03-25T15:29:15.989Z,13.17
2019-03-25T15:31:46.138Z,13.17
2019-03-25T15:34:16.314Z,12.88
2019-03-25T15:36:46.378Z,12.44
2019-03-25T15:39:16.458Z,12.11
2019-03-25T15:41:47.353Z,12.44
2019-03-25T15:44:17.421Z,12.25
2019-03-25T15:46:55.369Z,12.44
2019-03-25T15:49:19.311Z,12.25
2019-03-25T15:51:49.516Z,12.21
2019-03-25T15:54:19.645Z,12.36
2019-03-25T15:56:49.883Z,12.10
2019-03-25T15:59:20.010Z,11.72
2019-03-25T16:01:50.140Z,11.60
2019-03-25T16:04:20.518Z,11.55
2019-03-25T16:06:51.344Z,11.55
2019-03-25T16:09:21.534Z,11.52
2019-03-25T16:11:51.789Z,11.67
2019-03-25T16:14:21.961Z,11.59
2019-03-25T16:16:52.227Z,11.49
2019-03-25T16:19:22.624Z,11.32
2019-03-25T16:21:53.319Z,11.23
2019-03-25T16:24:24.157Z,11.17
2019-03-25T16:26:54.405Z,11.34
2019-03-25T16:29:24.610Z,11.12
2019-03-25T16:31:54.776Z,10.90
2019-03-25T16:34:24.950Z,10.37
2019-03-25T16:36:55.186Z,10.18
2019-03-25T16:39:25.321Z,10.08
2019-03-25T16:41:55.489Z,10.23
2019-03-25T16:44:25.805Z,10.31
2019-03-25T16:46:55.992Z,10.37
2019-03-25T16:49:26.109Z,10.42
2019-03-25T16:51:56.315Z,10.29
2019-03-25T16:54:26.476Z,10.06
2019-03-25T16:56:56.658Z,9.95
2019-03-25T16:59:26.929Z,9.82
2019-03-25T17:01:57.088Z,10.12
2019-03-25T17:04:27.248Z,10.25
2019-03-25T17:06:57.427Z,10.28
2019-03-25T17:09:27.730Z,9.99
2019-03-25T17:11:57.976Z,10.02
2019-03-25T17:14:28.250Z,9.92
2019-03-25T17:16:58.314Z,9.77
2019-03-25T17:19:28.484Z,9.86
2019-03-25T17:21:58.672Z,9.62
2019-03-25T17:24:28.752Z,9.33
2019-03-25T17:26:58.920Z,9.13
2019-03-25T17:29:29.182Z,9.29
2019-03-25T17:31:59.259Z,9.38
2019-03-25T17:34:29.414Z,9.61
2019-03-25T17:36:59.485Z,9.48
2019-03-25T17:39:29.751Z,9.31
2019-03-25T17:41:59.836Z,8.68
2019-03-25T17:44:29.993Z,8.60
2019-03-25T17:47:00.139Z,8.53
2019-03-25T17:49:30.319Z,8.00
2019-03-25T17:52:00.484Z,7.89
2019-03-25T17:54:30.591Z,8.04
2019-03-25T17:57:00.622Z,8.05
2019-03-25T17:59:30.698Z,7.90
2019-03-25T18:02:00.796Z,7.70
2019-03-25T18:04:31.059Z,7.73
2019-03-25T18:07:01.434Z,7.83
2019-03-25T18:09:31.574Z,7.97
2019-03-25T18:12:01.851Z,7.85
2019-03-25T18:14:32.151Z,7.92
2019-03-25T18:17:02.344Z,7.96
2019-03-25T18:19:32.621Z,8.02
2019-03-25T18:22:02.659Z,8.10
2019-03-25T18:24:32.812Z,7.94
2019-03-25T18:27:02.878Z,8.09
2019-03-25T18:29:32.978Z,8.10
2019-03-25T18:32:03.240Z,8.28
2019-03-25T18:34:33.496Z,8.17
2019-03-25T18:37:03.786Z,8.31
2019-03-25T18:39:33.927Z,8.47
2019-03-25T18:42:04.215Z,8.54
2019-03-25T18:44:34.347Z,8.68
2019-03-25T18:47:04.720Z,8.87
2019-03-25T18:49:34.713Z,9.03
2019-03-25T18:52:04.893Z,9.13
2019-03-25T18:54:35.025Z,9.21
2019-03-25T18:57:05.198Z,9.23
2019-03-25T18:59:35.382Z,9.23
2019-03-25T19:02:05.514Z,9.21
2019-03-25T19:04:35.618Z,9.37
2019-03-25T19:07:06.051Z,9.49
2019-03-25T19:09:36.191Z,9.42
2019-03-25T19:12:06.352Z,9.55
2019-03-25T19:14:36.497Z,9.13
2019-03-25T19:17:06.709Z,9.41
2019-03-25T19:19:36.765Z,9.21
2019-03-25T19:22:07.062Z,9.38
2019-03-25T19:24:37.280Z,9.19
2019-03-25T19:27:07.497Z,9.35
2019-03-25T19:29:37.764Z,9.39
2019-03-25T19:32:08.020Z,9.48
2019-03-25T19:34:38.275Z,9.56
2019-03-25T19:37:08.280Z,9.47
2019-03-25T19:39:38.458Z,9.44
2019-03-25T19:42:08.643Z,8.93
2019-03-25T19:44:38.710Z,9.07
2019-03-25T19:47:09.097Z,8.88
2019-03-25T19:49:39.186Z,9.01
2019-03-25T19:52:09.645Z,9.13
2019-03-25T19:54:39.984Z,9.27
2019-03-25T19:57:10.161Z,9.38
2019-03-25T19:59:40.103Z,9.43
2019-03-25T20:02:18.776Z,9.49
2019-03-25T20:04:42.065Z,9.46
2019-03-25T20:07:12.150Z,8.88
2019-03-25T20:09:42.596Z,8.96
2019-03-25T20:12:12.886Z,8.48
2019-03-25T20:14:43.083Z,8.70
2019-03-25T20:17:13.332Z,8.65
2019-03-25T20:19:43.596Z,8.82
2019-03-25T20:22:14.047Z,8.68
2019-03-25T20:24:44.119Z,8.79
2019-03-25T20:27:14.368Z,8.80
2019-03-25T20:29:44.344Z,8.83
2019-03-25T20:32:14.620Z,8.93
2019-03-25T20:34:44.646Z,9.04
2019-03-25T20:37:14.925Z,8.51
2019-03-25T20:39:44.996Z,7.63
2019-03-25T20:42:15.165Z,7.52
2019-03-25T20:44:45.341Z,7.63
2019-03-25T20:47:15.527Z,8.02
2019-03-25T20:49:45.629Z,8.41
2019-03-25T20:52:15.748Z,8.32
2019-03-25T20:54:45.844Z,8.74
2019-03-25T20:57:16.064Z,8.94
2019-03-25T20:59:46.209Z,9.09
2019-03-25T21:02:16.516Z,9.29
2019-03-25T21:04:46.688Z,8.53
2019-03-25T21:07:16.815Z,8.50
2019-03-25T21:09:46.943Z,8.91
2019-03-25T21:12:17.201Z,9.05
2019-03-25T21:14:47.412Z,8.80
2019-03-25T21:17:17.745Z,8.83
2019-03-25T21:19:47.890Z,9.13
2019-03-25T21:22:18.158Z,9.29
2019-03-25T21:24:48.301Z,9.43
2019-03-25T21:27:18.588Z,9.58
2019-03-25T21:29:48.843Z,9.66
2019-03-25T21:32:19.190Z,9.59
2019-03-25T21:34:49.314Z,9.53
2019-03-25T21:37:19.396Z,9.36
2019-03-25T21:39:49.432Z,9.38
2019-03-25T21:42:19.736Z,9.25
2019-03-25T21:44:49.788Z,9.03
2019-03-25T21:47:20.082Z,9.09
2019-03-25T21:49:50.119Z,9.21
2019-03-25T21:52:20.421Z,9.18
2019-03-25T21:54:51.012Z,9.28
2019-03-25T21:57:21.485Z,9.36
2019-03-25T21:59:51.628Z,9.32
2019-03-25T22:02:21.707Z,9.25
2019-03-25T22:04:51.910Z,9.24
2019-03-25T22:07:22.072Z,9.25
2019-03-25T22:09:52.227Z,9.29
2019-03-25T22:12:22.272Z,9.35
2019-03-25T22:14:52.587Z,9.44
2019-03-25T22:17:22.710Z,9.46
2019-03-25T22:19:52.784Z,9.49
2019-03-25T22:22:22.876Z,9.50
2019-03-25T22:24:53.131Z,9.46
2019-03-25T22:27:23.209Z,9.46
2019-03-25T22:29:53.306Z,9.47
2019-03-25T22:32:23.405Z,9.49
2019-03-25T22:34:53.563Z,9.49
2019-03-25T22:37:23.813Z,9.49
2019-03-25T22:39:53.921Z,9.42
2019-03-25T22:42:24.089Z,9.42
2019-03-25T22:44:54.127Z,9.33
2019-03-25T22:47:24.321Z,9.33
2019-03-25T22:49:54.473Z,9.34
2019-03-25T22:52:24.743Z,9.28
2019-03-25T22:54:54.853Z,9.33
2019-03-25T22:57:25.007Z,8.97
2019-03-25T22:59:55.076Z,9.08
2019-03-25T23:02:25.256Z,9.17
2019-03-25T23:04:55.454Z,9.19
2019-03-25T23:07:25.695Z,9.18
2019-03-25T23:09:55.755Z,8.99
2019-03-25T23:12:26.012Z,8.93
2019-03-25T23:14:56.114Z,8.87
2019-03-25T23:17:26.294Z,8.84
2019-03-25T23:19:56.357Z,8.72
2019-03-25T23:22:26.549Z,8.57
2019-03-25T23:24:56.634Z,8.53
2019-03-25T23:27:26.777Z,8.53
2019-03-25T23:29:56.899Z,8.54
2019-03-25T23:32:27.003Z,8.64
2019-03-25T23:34:57.176Z,8.50
2019-03-25T23:37:27.533Z,8.31
2019-03-25T23:39:57.748Z,8.32
2019-03-25T23:42:27.958Z,8.39
2019-03-25T23:44:58.173Z,8.12
2019-03-25T23:47:28.402Z,8.17
2019-03-25T23:49:58.600Z,8.31
2019-03-25T23:52:28.778Z,8.16
2019-03-25T23:54:58.916Z,8.26
2019-03-25T23:57:29.124Z,8.27
2019-03-25T23:59:59.195Z,8.31
